sensor_id;sensor_type;location;lat;lon;timestamp;P1;durP1;ratioP1;P2;durP2;ratioP2
35518;SDS011;21627;48.216;16.482;2023-03-08T00:01:17;46.13;;;22.27;;
35518;SDS011;21627;48.216;16.482;2023-03-08T00:03:54;49.97;;;24.53;;
35518;SDS011;21627;48.216;16.482;2023-03-08T00:06:23;49.90;;;23.67;;
35518;SDS011;21627;48.216;16.482;2023-03-08T00:08:59;48.00;;;23.67;;
35518;SDS011;21627;48.216;16.482;2023-03-08T00:11:27;47.20;;;23.63;;
35518;SDS011;21627;48.216;16.482;2023-03-08T00:13:56;58.97;;;24.47;;
35518;SDS011;21627;48.216;16.482;2023-03-08T00:16:23;43.33;;;22.00;;
35518;SDS011;21627;48.216;16.482;2023-03-08T00:18:50;37.63;;;17.60;;
35518;SDS011;21627;48.216;16.482;2023-03-08T00:21:18;33.17;;;15.23;;
35518;SDS011;21627;48.216;16.482;2023-03-08T00:23:45;26.90;;;13.93;;
35518;SDS011;21627;48.216;16.482;2023-03-08T00:26:13;24.30;;;13.43;;
35518;SDS011;21627;48.216;16.482;2023-03-08T00:28:40;28.23;;;12.73;;
35518;SDS011;21627;48.216;16.482;2023-03-08T00:31:09;29.50;;;12.47;;
35518;SDS011;21627;48.216;16.482;2023-03-08T00:33:38;27.77;;;12.30;;
35518;SDS011;21627;48.216;16.482;2023-03-08T00:36:12;23.63;;;12.27;;
35518;SDS011;21627;48.216;16.482;2023-03-08T00:38:44;24.80;;;11.77;;
35518;SDS011;21627;48.216;16.482;2023-03-08T00:41:13;27.43;;;12.37;;
35518;SDS011;21627;48.216;16.482;2023-03-08T00:43:41;29.23;;;12.40;;
35518;SDS011;21627;48.216;16.482;2023-03-08T00:46:08;21.42;;;11.50;;
35518;SDS011;21627;48.216;16.482;2023-03-08T00:48:37;24.40;;;12.15;;
35518;SDS011;21627;48.216;16.482;2023-03-08T00:51:05;20.92;;;11.55;;
35518;SDS011;21627;48.216;16.482;2023-03-08T00:53:33;19.50;;;10.32;;
35518;SDS011;21627;48.216;16.482;2023-03-08T00:56:00;20.92;;;11.30;;
35518;SDS011;21627;48.216;16.482;2023-03-08T00:58:28;23.52;;;10.70;;
35518;SDS011;21627;48.216;16.482;2023-03-08T01:00:56;18.25;;;9.73;;
35518;SDS011;21627;48.216;16.482;2023-03-08T01:03:24;19.48;;;10.60;;
35518;SDS011;21627;48.216;16.482;2023-03-08T01:05:54;18.75;;;10.15;;
35518;SDS011;21627;48.216;16.482;2023-03-08T01:08:23;18.13;;;9.43;;
35518;SDS011;21627;48.216;16.482;2023-03-08T01:10:53;21.95;;;9.48;;
35518;SDS011;21627;48.216;16.482;2023-03-08T01:13:24;16.02;;;8.75;;
35518;SDS011;21627;48.216;16.482;2023-03-08T01:15:57;17.30;;;8.27;;
35518;SDS011;21627;48.216;16.482;2023-03-08T01:18:24;13.68;;;7.47;;
35518;SDS011;21627;48.216;16.482;2023-03-08T01:20:56;16.00;;;8.45;;
35518;SDS011;21627;48.216;16.482;2023-03-08T01:23:26;14.70;;;7.28;;
35518;SDS011;21627;48.216;16.482;2023-03-08T01:26:01;15.70;;;7.45;;
35518;SDS011;21627;48.216;16.482;2023-03-08T01:28:56;14.68;;;7.45;;
35518;SDS011;21627;48.216;16.482;2023-03-08T01:31:27;15.63;;;7.50;;
35518;SDS011;21627;48.216;16.482;2023-03-08T01:33:56;16.77;;;8.32;;
35518;SDS011;21627;48.216;16.482;2023-03-08T01:36:24;12.35;;;6.97;;
35518;SDS011;21627;48.216;16.482;2023-03-08T01:38:53;15.32;;;7.10;;
35518;SDS011;21627;48.216;16.482;2023-03-08T01:41:24;22.40;;;8.07;;
35518;SDS011;21627;48.216;16.482;2023-03-08T01:43:54;12.38;;;7.22;;
35518;SDS011;21627;48.216;16.482;2023-03-08T01:54:46;15.18;;;7.47;;
35518;SDS011;21627;48.216;16.482;2023-03-08T02:03:09;13.50;;;7.40;;
35518;SDS011;21627;48.216;16.482;2023-03-08T02:05:32;16.65;;;8.80;;
35518;SDS011;21627;48.216;16.482;2023-03-08T02:08:02;14.75;;;7.82;;
35518;SDS011;21627;48.216;16.482;2023-03-08T02:10:29;14.95;;;7.88;;
35518;SDS011;21627;48.216;16.482;2023-03-08T02:12:57;13.63;;;8.05;;
35518;SDS011;21627;48.216;16.482;2023-03-08T02:15:24;15.13;;;8.02;;
35518;SDS011;21627;48.216;16.482;2023-03-08T02:17:52;15.45;;;8.15;;
35518;SDS011;21627;48.216;16.482;2023-03-08T02:20:23;17.77;;;8.55;;
35518;SDS011;21627;48.216;16.482;2023-03-08T02:23:13;16.65;;;8.00;;
35518;SDS011;21627;48.216;16.482;2023-03-08T02:25:49;16.17;;;7.88;;
35518;SDS011;21627;48.216;16.482;2023-03-08T02:28:28;15.98;;;8.10;;
35518;SDS011;21627;48.216;16.482;2023-03-08T02:30:57;12.82;;;7.55;;
35518;SDS011;21627;48.216;16.482;2023-03-08T02:33:25;21.00;;;8.55;;
35518;SDS011;21627;48.216;16.482;2023-03-08T02:35:52;14.02;;;8.38;;
35518;SDS011;21627;48.216;16.482;2023-03-08T02:38:20;17.65;;;8.57;;
35518;SDS011;21627;48.216;16.482;2023-03-08T02:40:47;13.63;;;7.72;;
35518;SDS011;21627;48.216;16.482;2023-03-08T02:43:18;13.68;;;8.15;;
35518;SDS011;21627;48.216;16.482;2023-03-08T02:45:46;17.58;;;8.75;;
35518;SDS011;21627;48.216;16.482;2023-03-08T02:48:14;19.23;;;8.95;;
35518;SDS011;21627;48.216;16.482;2023-03-08T02:50:42;14.52;;;8.80;;
35518;SDS011;21627;48.216;16.482;2023-03-08T02:53:09;14.95;;;8.43;;
35518;SDS011;21627;48.216;16.482;2023-03-08T02:55:36;16.27;;;8.48;;
35518;SDS011;21627;48.216;16.482;2023-03-08T02:58:05;15.25;;;8.25;;
35518;SDS011;21627;48.216;16.482;2023-03-08T03:00:36;14.80;;;8.32;;
35518;SDS011;21627;48.216;16.482;2023-03-08T03:03:04;22.00;;;9.10;;
35518;SDS011;21627;48.216;16.482;2023-03-08T03:05:31;16.75;;;8.70;;
35518;SDS011;21627;48.216;16.482;2023-03-08T03:07:58;17.13;;;8.27;;
35518;SDS011;21627;48.216;16.482;2023-03-08T03:10:26;18.15;;;9.50;;
35518;SDS011;21627;48.216;16.482;2023-03-08T03:12:53;18.10;;;9.05;;
35518;SDS011;21627;48.216;16.482;2023-03-08T03:15:20;14.40;;;8.23;;
35518;SDS011;21627;48.216;16.482;2023-03-08T03:17:48;17.23;;;9.07;;
35518;SDS011;21627;48.216;16.482;2023-03-08T03:20:15;18.70;;;10.02;;
35518;SDS011;21627;48.216;16.482;2023-03-08T03:22:42;14.15;;;8.50;;
35518;SDS011;21627;48.216;16.482;2023-03-08T03:25:10;17.80;;;8.48;;
35518;SDS011;21627;48.216;16.482;2023-03-08T03:27:37;16.15;;;8.02;;
35518;SDS011;21627;48.216;16.482;2023-03-08T03:30:05;20.33;;;10.15;;
35518;SDS011;21627;48.216;16.482;2023-03-08T03:32:34;18.30;;;9.35;;
35518;SDS011;21627;48.216;16.482;2023-03-08T03:35:02;20.42;;;9.57;;
35518;SDS011;21627;48.216;16.482;2023-03-08T03:37:29;16.58;;;9.70;;
35518;SDS011;21627;48.216;16.482;2023-03-08T03:39:56;20.05;;;9.07;;
35518;SDS011;21627;48.216;16.482;2023-03-08T03:42:23;18.60;;;8.40;;
35518;SDS011;21627;48.216;16.482;2023-03-08T03:44:50;21.60;;;9.52;;
35518;SDS011;21627;48.216;16.482;2023-03-08T03:47:17;18.75;;;9.43;;
35518;SDS011;21627;48.216;16.482;2023-03-08T03:49:45;18.35;;;9.38;;
35518;SDS011;21627;48.216;16.482;2023-03-08T03:52:12;18.58;;;9.85;;
35518;SDS011;21627;48.216;16.482;2023-03-08T03:54:39;19.00;;;8.77;;
35518;SDS011;21627;48.216;16.482;2023-03-08T03:57:06;20.35;;;9.60;;
35518;SDS011;21627;48.216;16.482;2023-03-08T03:59:33;16.75;;;9.20;;
35518;SDS011;21627;48.216;16.482;2023-03-08T04:02:00;18.25;;;9.57;;
35518;SDS011;21627;48.216;16.482;2023-03-08T04:04:27;18.02;;;9.38;;
35518;SDS011;21627;48.216;16.482;2023-03-08T04:06:55;17.45;;;9.70;;
35518;SDS011;21627;48.216;16.482;2023-03-08T04:09:22;19.30;;;9.63;;
35518;SDS011;21627;48.216;16.482;2023-03-08T04:11:49;24.88;;;9.10;;
35518;SDS011;21627;48.216;16.482;2023-03-08T04:14:16;16.80;;;9.50;;
35518;SDS011;21627;48.216;16.482;2023-03-08T04:16:43;21.48;;;8.85;;
35518;SDS011;21627;48.216;16.482;2023-03-08T04:19:11;19.10;;;9.52;;
35518;SDS011;21627;48.216;16.482;2023-03-08T04:21:38;20.23;;;9.63;;
35518;SDS011;21627;48.216;16.482;2023-03-08T04:24:06;16.30;;;8.73;;
35518;SDS011;21627;48.216;16.482;2023-03-08T04:26:34;17.40;;;9.45;;
35518;SDS011;21627;48.216;16.482;2023-03-08T04:29:02;16.58;;;9.23;;
35518;SDS011;21627;48.216;16.482;2023-03-08T04:31:32;17.95;;;10.00;;
35518;SDS011;21627;48.216;16.482;2023-03-08T04:34:00;16.55;;;8.63;;
35518;SDS011;21627;48.216;16.482;2023-03-08T04:36:29;14.82;;;8.27;;
35518;SDS011;21627;48.216;16.482;2023-03-08T04:38:56;17.02;;;8.55;;
35518;SDS011;21627;48.216;16.482;2023-03-08T04:41:24;15.80;;;8.75;;
35518;SDS011;21627;48.216;16.482;2023-03-08T04:43:53;16.10;;;8.98;;
35518;SDS011;21627;48.216;16.482;2023-03-08T04:46:23;15.52;;;8.68;;
35518;SDS011;21627;48.216;16.482;2023-03-08T04:48:52;19.13;;;8.77;;
35518;SDS011;21627;48.216;16.482;2023-03-08T04:51:24;16.77;;;8.60;;
35518;SDS011;21627;48.216;16.482;2023-03-08T04:53:52;17.02;;;8.77;;
35518;SDS011;21627;48.216;16.482;2023-03-08T04:56:20;17.73;;;8.73;;
35518;SDS011;21627;48.216;16.482;2023-03-08T04:58:47;17.67;;;9.35;;
35518;SDS011;21627;48.216;16.482;2023-03-08T05:01:16;16.05;;;9.10;;
35518;SDS011;21627;48.216;16.482;2023-03-08T05:03:45;16.60;;;9.35;;
35518;SDS011;21627;48.216;16.482;2023-03-08T05:06:15;17.48;;;9.75;;
35518;SDS011;21627;48.216;16.482;2023-03-08T05:08:42;24.33;;;9.85;;
35518;SDS011;21627;48.216;16.482;2023-03-08T05:11:12;14.95;;;8.82;;
35518;SDS011;21627;48.216;16.482;2023-03-08T05:13:49;15.60;;;9.20;;
35518;SDS011;21627;48.216;16.482;2023-03-08T05:16:18;25.70;;;10.48;;
35518;SDS011;21627;48.216;16.482;2023-03-08T05:18:46;20.42;;;9.13;;
35518;SDS011;21627;48.216;16.482;2023-03-08T05:21:15;15.57;;;9.05;;
35518;SDS011;21627;48.216;16.482;2023-03-08T05:23:45;17.33;;;9.20;;
35518;SDS011;21627;48.216;16.482;2023-03-08T05:26:14;23.20;;;9.60;;
35518;SDS011;21627;48.216;16.482;2023-03-08T05:28:43;17.45;;;9.50;;
35518;SDS011;21627;48.216;16.482;2023-03-08T05:31:11;24.52;;;10.68;;
35518;SDS011;21627;48.216;16.482;2023-03-08T05:33:42;18.05;;;10.35;;
35518;SDS011;21627;48.216;16.482;2023-03-08T05:36:12;19.67;;;10.30;;
35518;SDS011;21627;48.216;16.482;2023-03-08T05:38:40;16.52;;;9.38;;
35518;SDS011;21627;48.216;16.482;2023-03-08T05:41:09;18.88;;;9.98;;
35518;SDS011;21627;48.216;16.482;2023-03-08T05:43:39;24.42;;;10.77;;
35518;SDS011;21627;48.216;16.482;2023-03-08T05:46:11;17.17;;;9.27;;
35518;SDS011;21627;48.216;16.482;2023-03-08T05:48:41;21.70;;;10.73;;
35518;SDS011;21627;48.216;16.482;2023-03-08T05:51:10;22.63;;;11.32;;
35518;SDS011;21627;48.216;16.482;2023-03-08T05:53:40;15.45;;;9.25;;
35518;SDS011;21627;48.216;16.482;2023-03-08T05:56:17;19.17;;;9.75;;
35518;SDS011;21627;48.216;16.482;2023-03-08T05:58:47;20.40;;;10.02;;
35518;SDS011;21627;48.216;16.482;2023-03-08T06:03:48;20.33;;;10.35;;
35518;SDS011;21627;48.216;16.482;2023-03-08T06:06:17;15.05;;;9.20;;
35518;SDS011;21627;48.216;16.482;2023-03-08T06:08:46;21.50;;;10.75;;
35518;SDS011;21627;48.216;16.482;2023-03-08T06:11:14;16.75;;;10.02;;
35518;SDS011;21627;48.216;16.482;2023-03-08T06:13:41;17.35;;;9.70;;
35518;SDS011;21627;48.216;16.482;2023-03-08T06:16:08;18.77;;;9.98;;
35518;SDS011;21627;48.216;16.482;2023-03-08T06:18:37;15.50;;;9.05;;
35518;SDS011;21627;48.216;16.482;2023-03-08T06:21:11;22.90;;;9.73;;
35518;SDS011;21627;48.216;16.482;2023-03-08T06:23:41;19.83;;;10.90;;
35518;SDS011;21627;48.216;16.482;2023-03-08T06:26:10;17.50;;;9.60;;
35518;SDS011;21627;48.216;16.482;2023-03-08T06:28:38;20.00;;;9.80;;
35518;SDS011;21627;48.216;16.482;2023-03-08T06:31:06;19.20;;;9.88;;
35518;SDS011;21627;48.216;16.482;2023-03-08T06:33:39;17.02;;;9.80;;
35518;SDS011;21627;48.216;16.482;2023-03-08T06:36:08;16.73;;;9.95;;
35518;SDS011;21627;48.216;16.482;2023-03-08T06:38:39;25.15;;;10.68;;
35518;SDS011;21627;48.216;16.482;2023-03-08T06:41:08;16.55;;;9.85;;
35518;SDS011;21627;48.216;16.482;2023-03-08T06:43:37;16.48;;;9.77;;
35518;SDS011;21627;48.216;16.482;2023-03-08T06:46:05;16.33;;;9.15;;
35518;SDS011;21627;48.216;16.482;2023-03-08T06:48:36;23.58;;;9.68;;
35518;SDS011;21627;48.216;16.482;2023-03-08T06:51:04;16.48;;;8.98;;
35518;SDS011;21627;48.216;16.482;2023-03-08T06:53:32;18.30;;;9.50;;
35518;SDS011;21627;48.216;16.482;2023-03-08T06:56:01;17.92;;;10.10;;
35518;SDS011;21627;48.216;16.482;2023-03-08T06:58:33;17.58;;;9.95;;
35518;SDS011;21627;48.216;16.482;2023-03-08T07:01:03;20.30;;;10.10;;
35518;SDS011;21627;48.216;16.482;2023-03-08T07:03:31;20.52;;;10.88;;
35518;SDS011;21627;48.216;16.482;2023-03-08T07:05:59;24.60;;;10.27;;
35518;SDS011;21627;48.216;16.482;2023-03-08T07:08:33;15.32;;;8.80;;
35518;SDS011;21627;48.216;16.482;2023-03-08T07:11:02;18.55;;;9.00;;
35518;SDS011;21627;48.216;16.482;2023-03-08T07:13:29;15.60;;;9.52;;
35518;SDS011;21627;48.216;16.482;2023-03-08T07:15:57;17.42;;;8.98;;
35518;SDS011;21627;48.216;16.482;2023-03-08T07:18:24;16.75;;;9.25;;
35518;SDS011;21627;48.216;16.482;2023-03-08T07:20:52;17.75;;;8.38;;
35518;SDS011;21627;48.216;16.482;2023-03-08T07:23:22;15.55;;;8.68;;
35518;SDS011;21627;48.216;16.482;2023-03-08T07:25:49;17.75;;;8.75;;
35518;SDS011;21627;48.216;16.482;2023-03-08T07:28:17;16.52;;;8.50;;
35518;SDS011;21627;48.216;16.482;2023-03-08T07:30:48;15.38;;;8.55;;
35518;SDS011;21627;48.216;16.482;2023-03-08T07:33:19;17.15;;;9.05;;
35518;SDS011;21627;48.216;16.482;2023-03-08T07:35:47;22.85;;;9.38;;
35518;SDS011;21627;48.216;16.482;2023-03-08T07:38:15;16.60;;;8.18;;
35518;SDS011;21627;48.216;16.482;2023-03-08T07:40:43;15.30;;;8.60;;
35518;SDS011;21627;48.216;16.482;2023-03-08T07:43:10;15.80;;;8.18;;
35518;SDS011;21627;48.216;16.482;2023-03-08T07:45:38;16.48;;;7.82;;
35518;SDS011;21627;48.216;16.482;2023-03-08T07:48:05;16.13;;;8.30;;
35518;SDS011;21627;48.216;16.482;2023-03-08T07:50:32;15.55;;;8.40;;
35518;SDS011;21627;48.216;16.482;2023-03-08T07:53:00;15.02;;;7.72;;
35518;SDS011;21627;48.216;16.482;2023-03-08T07:55:27;16.25;;;7.75;;
35518;SDS011;21627;48.216;16.482;2023-03-08T07:57:55;15.30;;;7.60;;
35518;SDS011;21627;48.216;16.482;2023-03-08T08:00:22;12.93;;;7.07;;
35518;SDS011;21627;48.216;16.482;2023-03-08T08:02:49;13.57;;;7.20;;
35518;SDS011;21627;48.216;16.482;2023-03-08T08:05:19;14.38;;;6.30;;
35518;SDS011;21627;48.216;16.482;2023-03-08T08:07:47;12.38;;;6.63;;
35518;SDS011;21627;48.216;16.482;2023-03-08T08:10:15;12.63;;;6.97;;
35518;SDS011;21627;48.216;16.482;2023-03-08T08:12:42;12.07;;;6.93;;
35518;SDS011;21627;48.216;16.482;2023-03-08T08:15:10;11.20;;;6.45;;
35518;SDS011;21627;48.216;16.482;2023-03-08T08:17:37;13.15;;;6.43;;
35518;SDS011;21627;48.216;16.482;2023-03-08T08:20:04;10.50;;;5.45;;
35518;SDS011;21627;48.216;16.482;2023-03-08T08:22:34;11.02;;;5.53;;
35518;SDS011;21627;48.216;16.482;2023-03-08T08:25:05;9.77;;;5.30;;
35518;SDS011;21627;48.216;16.482;2023-03-08T08:27:34;10.27;;;4.72;;
35518;SDS011;21627;48.216;16.482;2023-03-08T08:30:03;8.80;;;4.97;;
35518;SDS011;21627;48.216;16.482;2023-03-08T08:32:34;9.38;;;5.78;;
35518;SDS011;21627;48.216;16.482;2023-03-08T08:35:02;9.02;;;5.07;;
35518;SDS011;21627;48.216;16.482;2023-03-08T08:37:30;11.75;;;5.10;;
35518;SDS011;21627;48.216;16.482;2023-03-08T08:39:58;10.43;;;5.72;;
35518;SDS011;21627;48.216;16.482;2023-03-08T08:42:26;10.77;;;5.18;;
35518;SDS011;21627;48.216;16.482;2023-03-08T08:44:53;7.93;;;4.75;;
35518;SDS011;21627;48.216;16.482;2023-03-08T08:47:21;8.45;;;4.60;;
35518;SDS011;21627;48.216;16.482;2023-03-08T08:49:48;8.70;;;3.88;;
35518;SDS011;21627;48.216;16.482;2023-03-08T08:52:15;7.40;;;4.15;;
35518;SDS011;21627;48.216;16.482;2023-03-08T08:54:42;10.70;;;4.32;;
35518;SDS011;21627;48.216;16.482;2023-03-08T08:57:09;7.50;;;3.92;;
35518;SDS011;21627;48.216;16.482;2023-03-08T08:59:37;8.43;;;4.82;;
35518;SDS011;21627;48.216;16.482;2023-03-08T09:02:04;7.38;;;3.88;;
35518;SDS011;21627;48.216;16.482;2023-03-08T09:04:31;11.02;;;4.63;;
35518;SDS011;21627;48.216;16.482;2023-03-08T09:06:59;10.80;;;4.53;;
35518;SDS011;21627;48.216;16.482;2023-03-08T09:09:26;8.68;;;4.80;;
35518;SDS011;21627;48.216;16.482;2023-03-08T09:11:53;8.68;;;4.32;;
35518;SDS011;21627;48.216;16.482;2023-03-08T09:14:21;10.13;;;4.82;;
35518;SDS011;21627;48.216;16.482;2023-03-08T09:16:49;10.48;;;6.10;;
35518;SDS011;21627;48.216;16.482;2023-03-08T09:19:17;7.78;;;4.50;;
35518;SDS011;21627;48.216;16.482;2023-03-08T09:21:45;7.22;;;4.40;;
35518;SDS011;21627;48.216;16.482;2023-03-08T09:24:12;9.65;;;4.72;;
35518;SDS011;21627;48.216;16.482;2023-03-08T09:26:40;8.10;;;4.00;;
35518;SDS011;21627;48.216;16.482;2023-03-08T09:29:07;7.13;;;4.22;;
35518;SDS011;21627;48.216;16.482;2023-03-08T09:31:36;7.22;;;4.57;;
35518;SDS011;21627;48.216;16.482;2023-03-08T09:34:04;8.55;;;4.72;;
35518;SDS011;21627;48.216;16.482;2023-03-08T09:36:35;9.82;;;5.10;;
35518;SDS011;21627;48.216;16.482;2023-03-08T09:39:05;12.95;;;5.05;;
35518;SDS011;21627;48.216;16.482;2023-03-08T09:41:51;9.48;;;4.47;;
35518;SDS011;21627;48.216;16.482;2023-03-08T09:50:16;8.90;;;5.15;;
35518;SDS011;21627;48.216;16.482;2023-03-08T09:55:51;10.52;;;5.53;;
35518;SDS011;21627;48.216;16.482;2023-03-08T09:58:40;10.40;;;5.18;;
35518;SDS011;21627;48.216;16.482;2023-03-08T10:16:02;11.38;;;4.97;;
35518;SDS011;21627;48.216;16.482;2023-03-08T10:21:09;9.05;;;5.28;;
35518;SDS011;21627;48.216;16.482;2023-03-08T10:23:46;10.05;;;5.65;;
35518;SDS011;21627;48.216;16.482;2023-03-08T10:26:26;8.93;;;4.90;;
35518;SDS011;21627;48.216;16.482;2023-03-08T10:28:54;12.95;;;5.68;;
35518;SDS011;21627;48.216;16.482;2023-03-08T10:31:26;10.25;;;5.38;;
35518;SDS011;21627;48.216;16.482;2023-03-08T10:34:12;10.23;;;5.13;;
35518;SDS011;21627;48.216;16.482;2023-03-08T10:36:55;10.38;;;5.63;;
35518;SDS011;21627;48.216;16.482;2023-03-08T10:39:29;11.98;;;5.65;;
35518;SDS011;21627;48.216;16.482;2023-03-08T10:41:58;12.30;;;6.10;;
35518;SDS011;21627;48.216;16.482;2023-03-08T10:44:40;14.10;;;6.72;;
35518;SDS011;21627;48.216;16.482;2023-03-08T10:47:27;10.57;;;5.93;;
35518;SDS011;21627;48.216;16.482;2023-03-08T10:52:37;10.18;;;6.63;;
35518;SDS011;21627;48.216;16.482;2023-03-08T10:57:53;15.30;;;7.90;;
35518;SDS011;21627;48.216;16.482;2023-03-08T11:00:35;19.83;;;8.35;;
35518;SDS011;21627;48.216;16.482;2023-03-08T11:03:21;22.77;;;10.80;;
35518;SDS011;21627;48.216;16.482;2023-03-08T11:05:51;19.40;;;11.13;;
35518;SDS011;21627;48.216;16.482;2023-03-08T11:08:50;20.48;;;10.70;;
35518;SDS011;21627;48.216;16.482;2023-03-08T11:11:20;24.65;;;10.85;;
35518;SDS011;21627;48.216;16.482;2023-03-08T11:13:48;23.15;;;11.07;;
35518;SDS011;21627;48.216;16.482;2023-03-08T11:39:29;19.17;;;11.07;;
35518;SDS011;21627;48.216;16.482;2023-03-08T11:42:22;19.42;;;11.27;;
35518;SDS011;21627;48.216;16.482;2023-03-08T11:53:51;25.15;;;12.00;;
35518;SDS011;21627;48.216;16.482;2023-03-08T11:59:50;24.15;;;11.07;;
35518;SDS011;21627;48.216;16.482;2023-03-08T12:02:36;31.38;;;12.70;;
35518;SDS011;21627;48.216;16.482;2023-03-08T12:07:52;21.45;;;11.95;;
35518;SDS011;21627;48.216;16.482;2023-03-08T12:10:36;21.98;;;12.20;;
35518;SDS011;21627;48.216;16.482;2023-03-08T12:13:19;21.50;;;12.85;;
35518;SDS011;21627;48.216;16.482;2023-03-08T12:22:16;21.90;;;12.35;;
35518;SDS011;21627;48.216;16.482;2023-03-08T12:31:00;23.10;;;12.02;;
35518;SDS011;21627;48.216;16.482;2023-03-08T12:33:54;23.92;;;11.88;;
35518;SDS011;21627;48.216;16.482;2023-03-08T12:36:36;24.38;;;12.25;;
35518;SDS011;21627;48.216;16.482;2023-03-08T12:39:08;25.15;;;12.13;;
35518;SDS011;21627;48.216;16.482;2023-03-08T12:44:41;21.88;;;11.80;;
35518;SDS011;21627;48.216;16.482;2023-03-08T12:49:43;20.13;;;11.70;;
35518;SDS011;21627;48.216;16.482;2023-03-08T12:57:58;30.80;;;12.88;;
35518;SDS011;21627;48.216;16.482;2023-03-08T13:00:29;24.55;;;11.60;;
35518;SDS011;21627;48.216;16.482;2023-03-08T13:05:39;22.05;;;11.65;;
35518;SDS011;21627;48.216;16.482;2023-03-08T13:10:57;32.22;;;12.95;;
35518;SDS011;21627;48.216;16.482;2023-03-08T13:13:51;21.73;;;11.75;;
35518;SDS011;21627;48.216;16.482;2023-03-08T13:21:38;19.27;;;11.98;;
35518;SDS011;21627;48.216;16.482;2023-03-08T13:29:40;23.92;;;10.88;;
35518;SDS011;21627;48.216;16.482;2023-03-08T13:32:14;20.33;;;11.68;;
35518;SDS011;21627;48.216;16.482;2023-03-08T13:34:49;27.35;;;11.55;;
35518;SDS011;21627;48.216;16.482;2023-03-08T13:37:28;17.77;;;10.65;;
35518;SDS011;21627;48.216;16.482;2023-03-08T13:39:58;20.67;;;11.02;;
35518;SDS011;21627;48.216;16.482;2023-03-08T13:42:27;20.67;;;11.05;;
35518;SDS011;21627;48.216;16.482;2023-03-08T13:45:09;17.42;;;10.75;;
35518;SDS011;21627;48.216;16.482;2023-03-08T13:47:43;18.40;;;11.30;;
35518;SDS011;21627;48.216;16.482;2023-03-08T13:50:19;20.13;;;10.98;;
35518;SDS011;21627;48.216;16.482;2023-03-08T13:52:54;20.67;;;10.68;;
35518;SDS011;21627;48.216;16.482;2023-03-08T13:55:24;22.63;;;10.85;;
35518;SDS011;21627;48.216;16.482;2023-03-08T13:58:01;23.40;;;11.38;;
35518;SDS011;21627;48.216;16.482;2023-03-08T14:03:02;19.15;;;10.57;;
35518;SDS011;21627;48.216;16.482;2023-03-08T14:05:38;21.65;;;10.60;;
35518;SDS011;21627;48.216;16.482;2023-03-08T14:08:19;23.77;;;9.75;;
35518;SDS011;21627;48.216;16.482;2023-03-08T14:10:59;20.15;;;10.02;;
35518;SDS011;21627;48.216;16.482;2023-03-08T14:13:31;24.02;;;10.68;;
35518;SDS011;21627;48.216;16.482;2023-03-08T14:16:03;20.00;;;10.57;;
35518;SDS011;21627;48.216;16.482;2023-03-08T14:18:36;20.13;;;9.93;;
35518;SDS011;21627;48.216;16.482;2023-03-08T14:21:24;23.13;;;11.02;;
35518;SDS011;21627;48.216;16.482;2023-03-08T14:31:29;18.40;;;10.18;;
35518;SDS011;21627;48.216;16.482;2023-03-08T14:33:58;21.60;;;10.32;;
35518;SDS011;21627;48.216;16.482;2023-03-08T14:36:30;15.15;;;9.68;;
35518;SDS011;21627;48.216;16.482;2023-03-08T14:38:59;15.88;;;10.43;;
35518;SDS011;21627;48.216;16.482;2023-03-08T14:41:31;23.63;;;11.38;;
35518;SDS011;21627;48.216;16.482;2023-03-08T14:44:02;18.00;;;9.90;;
35518;SDS011;21627;48.216;16.482;2023-03-08T14:46:31;19.73;;;10.52;;
35518;SDS011;21627;48.216;16.482;2023-03-08T14:49:02;22.27;;;10.30;;
35518;SDS011;21627;48.216;16.482;2023-03-08T14:51:40;20.45;;;11.48;;
35518;SDS011;21627;48.216;16.482;2023-03-08T14:57:15;22.80;;;11.75;;
35518;SDS011;21627;48.216;16.482;2023-03-08T14:59:44;22.65;;;10.82;;
35518;SDS011;21627;48.216;16.482;2023-03-08T15:02:13;24.02;;;10.73;;
35518;SDS011;21627;48.216;16.482;2023-03-08T15:04:42;21.98;;;11.15;;
35518;SDS011;21627;48.216;16.482;2023-03-08T15:07:20;21.25;;;10.20;;
35518;SDS011;21627;48.216;16.482;2023-03-08T15:09:49;21.70;;;11.02;;
35518;SDS011;21627;48.216;16.482;2023-03-08T15:12:17;20.75;;;10.07;;
35518;SDS011;21627;48.216;16.482;2023-03-08T15:14:44;20.30;;;11.18;;
35518;SDS011;21627;48.216;16.482;2023-03-08T15:17:11;19.27;;;10.35;;
35518;SDS011;21627;48.216;16.482;2023-03-08T15:19:38;20.38;;;10.38;;
35518;SDS011;21627;48.216;16.482;2023-03-08T15:22:06;23.83;;;10.60;;
35518;SDS011;21627;48.216;16.482;2023-03-08T15:24:33;19.70;;;11.00;;
35518;SDS011;21627;48.216;16.482;2023-03-08T15:27:00;22.05;;;11.02;;
35518;SDS011;21627;48.216;16.482;2023-03-08T15:29:28;21.38;;;10.82;;
35518;SDS011;21627;48.216;16.482;2023-03-08T15:31:58;20.10;;;11.40;;
35518;SDS011;21627;48.216;16.482;2023-03-08T15:34:26;26.63;;;9.93;;
35518;SDS011;21627;48.216;16.482;2023-03-08T15:36:54;17.90;;;10.18;;
35518;SDS011;21627;48.216;16.482;2023-03-08T15:39:21;20.40;;;10.25;;
35518;SDS011;21627;48.216;16.482;2023-03-08T15:41:48;23.85;;;10.85;;
35518;SDS011;21627;48.216;16.482;2023-03-08T15:44:16;24.98;;;10.35;;
35518;SDS011;21627;48.216;16.482;2023-03-08T15:46:43;22.35;;;10.25;;
35518;SDS011;21627;48.216;16.482;2023-03-08T15:49:10;17.90;;;10.85;;
35518;SDS011;21627;48.216;16.482;2023-03-08T15:51:37;26.02;;;11.63;;
35518;SDS011;21627;48.216;16.482;2023-03-08T15:54:05;23.95;;;10.50;;
35518;SDS011;21627;48.216;16.482;2023-03-08T15:56:32;26.08;;;10.65;;
35518;SDS011;21627;48.216;16.482;2023-03-08T15:59:00;21.98;;;10.65;;
35518;SDS011;21627;48.216;16.482;2023-03-08T16:01:28;24.30;;;11.10;;
35518;SDS011;21627;48.216;16.482;2023-03-08T16:03:55;23.80;;;11.23;;
35518;SDS011;21627;48.216;16.482;2023-03-08T16:06:23;23.95;;;10.90;;
35518;SDS011;21627;48.216;16.482;2023-03-08T16:08:50;19.65;;;10.23;;
35518;SDS011;21627;48.216;16.482;2023-03-08T16:11:18;21.00;;;9.90;;
35518;SDS011;21627;48.216;16.482;2023-03-08T16:13:51;24.95;;;10.68;;
35518;SDS011;21627;48.216;16.482;2023-03-08T16:16:19;20.15;;;10.40;;
35518;SDS011;21627;48.216;16.482;2023-03-08T16:18:46;22.05;;;11.30;;
35518;SDS011;21627;48.216;16.482;2023-03-08T16:21:14;19.77;;;10.02;;
35518;SDS011;21627;48.216;16.482;2023-03-08T16:23:42;20.23;;;10.15;;
35518;SDS011;21627;48.216;16.482;2023-03-08T16:26:11;17.77;;;10.60;;
35518;SDS011;21627;48.216;16.482;2023-03-08T16:28:43;20.70;;;10.30;;
35518;SDS011;21627;48.216;16.482;2023-03-08T16:31:13;19.88;;;10.50;;
35518;SDS011;21627;48.216;16.482;2023-03-08T16:33:42;25.42;;;9.63;;
35518;SDS011;21627;48.216;16.482;2023-03-08T16:36:09;18.75;;;10.25;;
35518;SDS011;21627;48.216;16.482;2023-03-08T16:38:38;23.00;;;10.13;;
35518;SDS011;21627;48.216;16.482;2023-03-08T16:41:06;21.25;;;9.85;;
35518;SDS011;21627;48.216;16.482;2023-03-08T16:43:41;16.80;;;10.48;;
35518;SDS011;21627;48.216;16.482;2023-03-08T16:46:18;18.27;;;10.10;;
35518;SDS011;21627;48.216;16.482;2023-03-08T16:48:48;19.10;;;10.27;;
35518;SDS011;21627;48.216;16.482;2023-03-08T16:51:19;23.13;;;10.10;;
35518;SDS011;21627;48.216;16.482;2023-03-08T16:53:49;15.68;;;9.40;;
35518;SDS011;21627;48.216;16.482;2023-03-08T16:56:18;19.25;;;10.52;;